Hors Challenge

Les Trail & Jogging De L'Hermeton - Romedenne (6.00 km)

samedi 10 juillet 2021

Vous pouvez trouver Le classement original sur : http://ultratiming.be
 
LES TRAIL & JOGGING DE L'HERMETON - ROMEDENNE
DISTANCE 6.00 km
samedi 10 juillet 2021
 
Place Dos NOM Equipe Catégorie Pl/cat Temps Temps/km Vitesse
01:00:00                
1 6413 BRUYÈRE SASHA SMAC CAH 1 0:23:26 03:54 15.36
2 419 THIRY SIMON TRI4PHIL ESPH 1 0:23:50 03:58 15.10
3 6470 PONCELET XAVIER UAC, TRAKKS V1H 1 0:24:04 04:01 14.96
4 6499 DEWEVER JOHNNY TRI4PHIL V1H 2 0:24:12 04:02 14.88
5 6468 POCHET ALEXANDRE CMA V1H 3 0:25:16 04:13 14.25
6 6436 DEWEVER DYLAN - ESPH 2 0:25:38 04:16 14.04
7 6421 CULOT JEAN-MARC - V2H 1 0:25:51 04:19 13.93
8 594 MAHIA SÉBASTIEN RUN ATTITUDE SEH 1 0:25:55 04:19 13.89
9 6474 RIFFLART DAMIEN JTRR SEH 2 0:26:00 04:20 13.85
10 6410 BRAET NINO TRI-B CAH 2 0:26:09 04:21 13.77
11 6482 SOMME ARNAUD TKRV ESPH 3 0:26:13 04:22 13.73
12 6415 CIRLANDE ALEXANDRE ZOULOUTERIE SEH 3 0:26:52 04:29 13.40
13 6427 DE PESTEL BLAISE VAULX SEH 4 0:26:59 04:30 13.34
14 6457 MAHY MANON SHARKS BEF 1 0:27:00 04:30 13.33
15 6444 GONDRY CORENTIN TRI4PHIL SEH 5 0:27:06 04:31 13.28
16 6473 RIFFLART MATHIEU JTRR SEH 6 0:27:28 04:35 13.11
17 6440 FORTEMPS BENJAMIN TRAILERS DES FA SEH 7 0:27:34 04:36 13.06
18 6423 DARAS NICOLAS GRAC - CAP BEAU V1H 4 0:27:35 04:36 13.05
19 600 PONCELET KYLIAN ACCO ESPH 4 0:27:55 04:39 12.90
20 6203 FRANÇOIS RAPHAËL - CAH 3 0:28:13 04:42 12.76
21 6466 PIERSON KILLIAN TRI4PHIL JUH 1 0:29:00 04:50 12.41
22 6448 JOLY CLÉMENT - SEH 8 0:29:50 04:58 12.07
23 6425 DARDENNE GAUTHIER TRI4PHILL MIH 1 0:29:58 05:00 12.01
24 6458 MAHY CHRISTOPHE - V1H 5 0:30:06 05:01 11.96
25 6494 FRANÇOIS MAXIME - MIH 2 0:30:22 05:04 11.86
26 6479 SEINGIER OLIVIER - SEH 9 0:31:35 05:16 11.40
27 6438 DUBOIS FRANZ LES VIKINGS SEH 10 0:31:50 05:18 11.31
28 593 WALLON JACQUES LES PTITS SPRIN V1H 6 0:31:58 05:20 11.26
29 6433 DELPIRE DAVID LES PETITS SPRI V2H 2 0:31:59 05:20 11.26
30 6492 VAN RENTERGHEM ANDRE JOGGING CLUB DE V3H 1 0:32:46 05:28 10.99
31 6402 ALLARD CHLOÉ CABW MIF 1 0:32:59 05:30 10.91
32 6496 MINET MARC - V2H 3 0:33:16 05:33 10.82
33 6446 GRAUWELS ARNAUD - MIH 3 0:33:34 05:36 10.72
34 6489 VAN GEEL EMILIE TEAM JOG HERMET JUF 1 0:33:43 05:37 10.68
35 6435 DEMEULDRE CLARA JOG HERMETON CAF 1 0:33:46 05:38 10.66
36 598 PIERARD VALÉRIE - V1F 1 0:34:02 05:40 10.58
37 6455 LOUIS JOHB TEAM MAHIA V2H 4 0:34:02 05:40 10.58
38 590 LEROY JEAN-PIERRE ACCO V2H 5 0:34:57 05:49 10.30
39 6404 BILLET FLORENT - CAH 4 0:35:03 05:50 10.27
40 6460 MARTIN JULIE - SEF 1 0:35:05 05:51 10.26
41 591 DELLE DONNE PASCAL - V2H 6 0:35:15 05:53 10.21
42 6443 GOBLET ANNICK ACCO V2F 1 0:35:27 05:55 10.16
43 6500 GUILLAUME SEBASTIEN - SEH 11 0:35:38 05:56 10.10
44 6480 SNAUWAERT CLÉMENCE JOG HERMETON CAF 2 0:35:55 05:59 10.02
45 6491 VAN QUAQUEBEKE EMY TRI4PHIL CAF 3 0:36:18 06:03 9.92
46 6490 VAN GEEL SOPHIE TEAM JOG HERMET CAF 4 0:36:32 06:05 9.85
47 6487 VAN DE STEENE CHRISTOPHE - V1H 7 0:36:38 06:06 9.83
48 6495 FRANÇOIS ARNAUD - BEG 1 0:37:12 06:12 9.68
49 6477 SANDRARD MICHÈLE LES VIKINGS SEF 2 0:37:13 06:12 9.67
50 6434 DEMEULDRE LENA JOG HERMETON JUF 2 0:37:25 06:14 9.62
51 6475 RORIVE REMI TKRV ESPH 5 0:37:42 06:17 9.55
52 6430 DEFOSSE STÉPHANIE - SEF 3 0:37:56 06:19 9.49
53 6461 MASSET MURIEL LES PTITS SPRIN V2F 2 0:37:56 06:19 9.49
54 6463 MUSEUX SUZI TRI4PHIL CAF 5 0:38:14 06:22 9.42
55 6418 COROUGE GASPARD - XXX   0:38:38 06:26 9.32
56 6419 COROUGE CHRISTOPHE - V1H 8 0:38:42 06:27 9.30
57 6454 LEROI CECILE - SEF 4 0:39:02 06:30 9.22
58 6481 SNAUWAERT LAETITIA - V1F 2 0:39:36 06:36 9.09
59 6401 ADAM PHILIPPE LES P?TITS SPRI V2H 7 0:39:37 06:36 9.09
60 6420 CRÉPIN DAVID TOUR À TOUR V1H 9 0:40:07 06:41 8.97
61 6442 GÉRARD CAMILLE ZOULOUTERIE SEF 5 0:40:22 06:44 8.92
62 6486 VAN DE STEENE ANTOINE - MIH 4 0:41:01 06:50 8.78
63 6416 COLLARD RENAUD TEAM SAMART SEH 12 0:41:10 06:52 8.74
64 6476 SANDERS ALINE - JUF 3 0:41:10 06:52 8.74
65 6424 DARDENNE SÉBASTIEN RUN HEURE CERF V1H 10 0:41:24 06:54 8.70
66 6488 VAN GEEL JUSTINE TEAM JOG HERMET ESPF 1 0:41:45 06:57 8.62
67 6411 BRASSEUR REMY RUN HEURE CERFO V3H 2 0:41:52 06:59 8.60
68 597 ROBERT CLOTAIRE TRI4PHIL POG 1 0:42:31 07:05 8.47
69 6498 SIBILLE JULES - BEG 2 0:42:55 07:09 8.39
70 6422 DAIX CHRISTIANE - V1F 3 0:42:55 07:09 8.39
71 6437 DROPSY LAETITIA - V1F 4 0:43:11 07:12 8.34
72 599 BAJILE LORICK - ESPH 6 0:43:12 07:12 8.33
73 6426 DARQUE OANA - ESPF 2 0:43:13 07:12 8.33
74 6452 LEGROS AMELIE LES PTITS SPRIN SEF 6 0:43:31 07:15 8.27
75 6493 VANSTEENKISTE ELODIE - SEF 7 0:43:58 07:20 8.19
76 595 VAN LIERDE AMAURY - SEH 13 0:44:08 07:21 8.16
77 6451 LANGE NOEMIE - SEF 8 0:44:08 07:21 8.16
78 6469 POHL NICOLE - V1F 5 0:44:09 07:22 8.15
79 6483 SOTTIAUX PERRINE - SEF 9 0:44:18 07:23 8.13
80 6408 BOURTEMBOURG LUCA TEAM SAMART JUH 2 0:44:24 07:24 8.11
81 6456 LOUIS OCÉANE TEAM MAHIA CAF 6 0:45:13 07:32 7.96
82 592 SEINGIER FABIEN - MIH 5 0:45:13 07:32 7.96
83 6462 MINETTE MARIE-BÉATRICE - SEF 10 0:45:14 07:32 7.96
84 6417 COLLIN SEVERINE - V1F 6 0:45:14 07:32 7.96
85 6497 MINETTE ANNE-SOPHIE TRAILERS DES FA SEF 11 0:45:14 07:32 7.96
86 6464 NUYTTEN MÉLANIE - SEF 12 0:46:28 07:45 7.75
87 6450 LAMBERT MURIELLE ACCO V2F 3 0:46:32 07:45 7.74
88 6485 TRUSSART PHILIPPE L' AGIMONTOISE V4H 1 0:46:35 07:46 7.73
89 6449 LALOY JULIE - SEF 13 0:47:55 07:59 7.51
90 6431 DEFOSSE DAMIEN LES P'TITS SPRI V3H 3 0:48:31 08:05 7.42
91 6409 BRAECKMAN PRISCILLE - JUF 4 0:50:17 08:23 7.16
92 6439 DUVAL MAUD - SEF 14 0:50:18 08:23 7.16
93 6293 MATIS LAURENCE - V1F 7 0:50:27 08:24 7.14
94 6291 DE POTTER LINDA JOG HERMETON V1F 8 0:50:28 08:25 7.13
95 6465 PELLISIER MATHYS Q3T XXX   0:51:33 08:35 6.98
96 6453 LENAERTS AMBRE - SEF 15 0:52:05 08:41 6.91
97 6471 POPRAWSKI SOPHIE - SEF 16 0:52:29 08:45 6.86
98 6428 DECHEF DANIÈLE CPMV NALINNES V2F 4 0:52:45 08:48 6.82
99 399 GOEIMANS ADELINE - SEF 17 0:53:01 08:50 6.79
100 6441 FRANÇOIS JESSICA - SEF 18 0:53:08 08:51 6.78
101 6406 BOLLE MÉLISSA - SEF 19 0:53:23 08:54 6.74
102 6459 MALCHAIR ANNE P'TITS SPRINTEU V1F 9 0:53:42 08:57 6.70
103 6432 DELMELLE INGRID - V2F 5 0:54:13 09:02 6.64
104 6429 DEFAUW MATHILDE - SEF 20 0:54:17 09:03 6.63
105 6472 REUTHER CATHERINE - V2F 6 0:54:58 09:10 6.55
106 596 EVRARD ISABELLE - V2F 7 0:54:58 09:10 6.55
107 6414 CAVILLOT VÉRONIQUE CPMV NALINNES V3F 1 0:55:08 09:11 6.53
108 6445 GOOSSENS FLORINE - SEF 21 0:56:18 09:23 6.39
109 6407 BOUCQUÉ JEANINE VAULX V2F 8 0:59:16 09:53 6.07
                 
Nos dernières videos